sensor_id;sensor_type;location;lat;lon;timestamp;pressure;altitude;pressure_sealevel;temperature;humidity
33949;BME280;20229;49.856;19.030;2023-05-06T00:01:55;101743.13;;;9.46;73.34
33949;BME280;20229;49.856;19.030;2023-05-06T00:07:09;101744.30;;;9.39;74.45
33949;BME280;20229;49.856;19.030;2023-05-06T00:12:22;101747.02;;;9.39;74.24
33949;BME280;20229;49.856;19.030;2023-05-06T00:17:36;101743.41;;;9.39;74.96
33949;BME280;20229;49.856;19.030;2023-05-06T00:22:50;101738.80;;;9.41;75.35
33949;BME280;20229;49.856;19.030;2023-05-06T00:28:05;101730.53;;;9.44;73.73
33949;BME280;20229;49.856;19.030;2023-05-06T00:33:19;101719.55;;;9.45;74.14
33949;BME280;20229;49.856;19.030;2023-05-06T00:38:32;101710.31;;;9.49;72.90
33949;BME280;20229;49.856;19.030;2023-05-06T00:43:46;101705.43;;;9.59;73.86
33949;BME280;20229;49.856;19.030;2023-05-06T00:49:01;101701.43;;;9.69;75.08
33949;BME280;20229;49.856;19.030;2023-05-06T00:54:15;101697.81;;;9.69;72.73
33949;BME280;20229;49.856;19.030;2023-05-06T00:59:29;101695.38;;;9.61;73.37
33949;BME280;20229;49.856;19.030;2023-05-06T01:04:43;101697.65;;;9.48;73.72
33949;BME280;20229;49.856;19.030;2023-05-06T01:10:09;101691.73;;;9.36;75.10
33949;BME280;20229;49.856;19.030;2023-05-06T01:15:58;101685.10;;;9.18;75.52
33949;BME280;20229;49.856;19.030;2023-05-06T01:21:12;101695.38;;;9.09;76.04
33949;BME280;20229;49.856;19.030;2023-05-06T01:26:26;101703.92;;;8.99;76.79
33949;BME280;20229;49.856;19.030;2023-05-06T01:31:44;101705.90;;;8.94;76.62
33949;BME280;20229;49.856;19.030;2023-05-06T01:37:09;101694.44;;;8.84;77.10
33949;BME280;20229;49.856;19.030;2023-05-06T01:42:26;101700.94;;;8.80;77.92
33949;BME280;20229;49.856;19.030;2023-05-06T01:47:40;101705.73;;;8.72;77.71
33949;BME280;20229;49.856;19.030;2023-05-06T01:52:57;101705.03;;;8.65;78.59
33949;BME280;20229;49.856;19.030;2023-05-06T01:58:12;101695.34;;;8.56;79.00
33949;BME280;20229;49.856;19.030;2023-05-06T02:03:25;101697.31;;;8.51;79.64
33949;BME280;20229;49.856;19.030;2023-05-06T02:08:39;101693.95;;;8.43;79.28
33949;BME280;20229;49.856;19.030;2023-05-06T02:13:54;101689.62;;;8.37;79.59
33949;BME280;20229;49.856;19.030;2023-05-06T02:19:08;101701.59;;;8.30;80.51
33949;BME280;20229;49.856;19.030;2023-05-06T02:24:22;101698.05;;;8.27;81.03
33949;BME280;20229;49.856;19.030;2023-05-06T02:29:35;101696.45;;;8.20;80.33
33949;BME280;20229;49.856;19.030;2023-05-06T02:34:52;101682.13;;;8.14;80.70
33949;BME280;20229;49.856;19.030;2023-05-06T02:40:06;101687.73;;;8.08;81.16
33949;BME280;20229;49.856;19.030;2023-05-06T02:45:22;101691.48;;;8.04;81.56
33949;BME280;20229;49.856;19.030;2023-05-06T02:50:35;101682.51;;;8.02;81.37
33949;BME280;20229;49.856;19.030;2023-05-06T02:55:49;101685.11;;;8.05;81.12
33949;BME280;20229;49.856;19.030;2023-05-06T03:01:03;101680.71;;;8.01;81.49
33949;BME280;20229;49.856;19.030;2023-05-06T03:06:17;101677.16;;;7.99;81.74
33949;BME280;20229;49.856;19.030;2023-05-06T03:11:32;101677.98;;;8.01;81.57
33949;BME280;20229;49.856;19.030;2023-05-06T03:16:45;101672.44;;;8.06;82.20
33949;BME280;20229;49.856;19.030;2023-05-06T03:21:59;101663.02;;;8.16;82.62
33949;BME280;20229;49.856;19.030;2023-05-06T03:27:13;101669.08;;;8.26;81.38
33949;BME280;20229;49.856;19.030;2023-05-06T03:32:26;101668.79;;;8.35;83.58
33949;BME280;20229;49.856;19.030;2023-05-06T03:37:41;101668.52;;;8.44;82.41
33949;BME280;20229;49.856;19.030;2023-05-06T03:42:55;101669.18;;;8.52;82.04
33949;BME280;20229;49.856;19.030;2023-05-06T03:48:09;101672.44;;;8.64;84.43
33949;BME280;20229;49.856;19.030;2023-05-06T03:53:23;101671.29;;;8.71;82.96
33949;BME280;20229;49.856;19.030;2023-05-06T03:58:38;101679.02;;;8.83;82.15
33949;BME280;20229;49.856;19.030;2023-05-06T04:03:52;101684.11;;;8.94;81.35
33949;BME280;20229;49.856;19.030;2023-05-06T04:09:06;101684.70;;;9.03;81.85
33949;BME280;20229;49.856;19.030;2023-05-06T04:14:21;101677.13;;;9.12;81.64
33949;BME280;20229;49.856;19.030;2023-05-06T04:19:36;101682.07;;;9.27;80.89
33949;BME280;20229;49.856;19.030;2023-05-06T04:24:50;101680.94;;;9.32;80.38
33949;BME280;20229;49.856;19.030;2023-05-06T04:30:05;101678.06;;;9.37;82.64
33949;BME280;20229;49.856;19.030;2023-05-06T04:35:19;101674.29;;;9.41;80.92
33949;BME280;20229;49.856;19.030;2023-05-06T04:40:37;101678.21;;;9.57;80.51
33949;BME280;20229;49.856;19.030;2023-05-06T04:45:52;101673.45;;;9.88;80.13
33949;BME280;20229;49.856;19.030;2023-05-06T04:51:07;101664.58;;;10.29;79.01
33949;BME280;20229;49.856;19.030;2023-05-06T04:56:21;101669.41;;;10.67;78.26
33949;BME280;20229;49.856;19.030;2023-05-06T05:01:35;101661.91;;;10.94;77.24
33949;BME280;20229;49.856;19.030;2023-05-06T05:06:49;101656.69;;;11.10;76.15
33949;BME280;20229;49.856;19.030;2023-05-06T05:12:04;101650.41;;;11.28;75.51
33949;BME280;20229;49.856;19.030;2023-05-06T05:17:17;101648.34;;;11.54;75.31
33949;BME280;20229;49.856;19.030;2023-05-06T05:22:31;101638.78;;;11.83;74.30
33949;BME280;20229;49.856;19.030;2023-05-06T05:27:45;101640.84;;;12.17;73.43
33949;BME280;20229;49.856;19.030;2023-05-06T05:32:59;101647.19;;;12.55;72.18
33949;BME280;20229;49.856;19.030;2023-05-06T05:38:13;101638.52;;;12.82;71.43
33949;BME280;20229;49.856;19.030;2023-05-06T05:43:28;101636.63;;;13.01;70.65
33949;BME280;20229;49.856;19.030;2023-05-06T05:48:43;101640.77;;;13.27;69.97
33949;BME280;20229;49.856;19.030;2023-05-06T05:53:57;101636.55;;;13.88;67.37
33949;BME280;20229;49.856;19.030;2023-05-06T05:59:11;101638.36;;;14.05;67.63
33949;BME280;20229;49.856;19.030;2023-05-06T06:04:24;101621.93;;;14.68;66.98
33949;BME280;20229;49.856;19.030;2023-05-06T06:09:40;101616.96;;;15.80;63.27
33949;BME280;20229;49.856;19.030;2023-05-06T06:14:54;101605.23;;;16.05;62.05
33949;BME280;20229;49.856;19.030;2023-05-06T06:20:10;101606.52;;;15.99;61.38
33949;BME280;20229;49.856;19.030;2023-05-06T06:25:24;101600.82;;;15.73;61.81
33949;BME280;20229;49.856;19.030;2023-05-06T06:30:38;101596.45;;;15.41;62.58
33949;BME280;20229;49.856;19.030;2023-05-06T06:35:52;101594.46;;;15.43;63.52
33949;BME280;20229;49.856;19.030;2023-05-06T06:41:06;101582.81;;;15.68;62.17
33949;BME280;20229;49.856;19.030;2023-05-06T06:46:21;101590.99;;;15.84;61.96
33949;BME280;20229;49.856;19.030;2023-05-06T06:51:35;101583.31;;;15.74;61.69
33949;BME280;20229;49.856;19.030;2023-05-06T06:56:53;101576.42;;;15.82;62.12
33949;BME280;20229;49.856;19.030;2023-05-06T07:02:09;101578.18;;;15.83;63.36
33949;BME280;20229;49.856;19.030;2023-05-06T07:07:24;101565.41;;;15.67;63.09
33949;BME280;20229;49.856;19.030;2023-05-06T07:12:37;101565.78;;;15.61;63.91
33949;BME280;20229;49.856;19.030;2023-05-06T07:17:51;101562.28;;;15.73;65.01
33949;BME280;20229;49.856;19.030;2023-05-06T07:23:05;101550.16;;;16.05;65.55
33949;BME280;20229;49.856;19.030;2023-05-06T07:28:19;101544.90;;;16.95;61.85
33949;BME280;20229;49.856;19.030;2023-05-06T07:33:33;101541.05;;;18.00;59.79
33949;BME280;20229;49.856;19.030;2023-05-06T07:38:47;101538.20;;;19.44;55.55
33949;BME280;20229;49.856;19.030;2023-05-06T07:44:00;101525.98;;;21.64;51.98
33949;BME280;20229;49.856;19.030;2023-05-06T07:49:15;101524.48;;;24.31;47.81
33949;BME280;20229;49.856;19.030;2023-05-06T07:54:28;101508.71;;;26.66;39.47
33949;BME280;20229;49.856;19.030;2023-05-06T07:59:47;101517.76;;;27.99;38.13
33949;BME280;20229;49.856;19.030;2023-05-06T08:05:01;101502.68;;;29.17;34.52
33949;BME280;20229;49.856;19.030;2023-05-06T08:10:15;101495.34;;;28.62;34.92
33949;BME280;20229;49.856;19.030;2023-05-06T08:15:29;101494.41;;;27.10;38.89
33949;BME280;20229;49.856;19.030;2023-05-06T08:20:43;101495.03;;;26.47;39.72
33949;BME280;20229;49.856;19.030;2023-05-06T08:25:57;101500.12;;;25.49;41.07
33949;BME280;20229;49.856;19.030;2023-05-06T08:31:11;101491.00;;;24.31;42.86
33949;BME280;20229;49.856;19.030;2023-05-06T08:36:25;101496.66;;;23.37;44.87
33949;BME280;20229;49.856;19.030;2023-05-06T08:41:46;101501.72;;;22.76;46.07
33949;BME280;20229;49.856;19.030;2023-05-06T08:47:01;101489.38;;;22.30;48.40
33949;BME280;20229;49.856;19.030;2023-05-06T08:52:16;101492.70;;;21.83;50.10
33949;BME280;20229;49.856;19.030;2023-05-06T08:57:34;101497.97;;;21.46;51.43
33949;BME280;20229;49.856;19.030;2023-05-06T09:02:48;101493.43;;;21.03;52.81
33949;BME280;20229;49.856;19.030;2023-05-06T09:08:02;101506.85;;;20.66;53.76
33949;BME280;20229;49.856;19.030;2023-05-06T09:13:17;101510.48;;;20.23;54.26
33949;BME280;20229;49.856;19.030;2023-05-06T09:18:33;101500.71;;;19.85;54.47
33949;BME280;20229;49.856;19.030;2023-05-06T09:23:49;101505.08;;;19.43;55.94
33949;BME280;20229;49.856;19.030;2023-05-06T09:33:59;101501.88;;;19.02;59.51
33949;BME280;20229;49.856;19.030;2023-05-06T09:39:25;101523.59;;;18.84;60.50
33949;BME280;20229;49.856;19.030;2023-05-06T09:44:40;101532.16;;;18.69;61.42
33949;BME280;20229;49.856;19.030;2023-05-06T09:49:57;101519.94;;;18.36;62.74
33949;BME280;20229;49.856;19.030;2023-05-06T09:55:17;101545.33;;;18.17;65.36
33949;BME280;20229;49.856;19.030;2023-05-06T10:00:31;101543.52;;;17.92;65.32
33949;BME280;20229;49.856;19.030;2023-05-06T10:05:46;101554.10;;;17.73;66.47
33949;BME280;20229;49.856;19.030;2023-05-06T10:11:00;101556.31;;;17.42;69.04
33949;BME280;20229;49.856;19.030;2023-05-06T10:16:14;101541.08;;;17.24;70.33
33949;BME280;20229;49.856;19.030;2023-05-06T10:21:30;101539.50;;;16.94;71.70
33949;BME280;20229;49.856;19.030;2023-05-06T10:26:47;101523.28;;;16.62;73.28
33949;BME280;20229;49.856;19.030;2023-05-06T10:32:01;101524.77;;;16.41;73.25
33949;BME280;20229;49.856;19.030;2023-05-06T10:37:16;101525.37;;;16.32;73.98
33949;BME280;20229;49.856;19.030;2023-05-06T10:42:33;101527.61;;;16.12;75.25
33949;BME280;20229;49.856;19.030;2023-05-06T10:53:15;101517.23;;;15.89;79.50
33949;BME280;20229;49.856;19.030;2023-05-06T10:58:34;101512.80;;;15.86;78.87
33949;BME280;20229;49.856;19.030;2023-05-06T11:03:49;101514.18;;;15.79;78.08
33949;BME280;20229;49.856;19.030;2023-05-06T11:09:05;101513.80;;;15.71;78.48
33949;BME280;20229;49.856;19.030;2023-05-06T11:14:29;101516.23;;;15.47;79.17
33949;BME280;20229;49.856;19.030;2023-05-06T11:19:43;101496.98;;;15.33;80.34
33949;BME280;20229;49.856;19.030;2023-05-06T11:24:57;101493.64;;;15.27;82.04
33949;BME280;20229;49.856;19.030;2023-05-06T11:30:13;101499.91;;;15.15;81.69
33949;BME280;20229;49.856;19.030;2023-05-06T11:35:33;101493.21;;;15.05;83.87
33949;BME280;20229;49.856;19.030;2023-05-06T11:40:48;101494.80;;;14.95;85.10
33949;BME280;20229;49.856;19.030;2023-05-06T11:46:01;101490.08;;;14.97;85.00
33949;BME280;20229;49.856;19.030;2023-05-06T11:51:20;101495.19;;;15.03;84.59
33949;BME280;20229;49.856;19.030;2023-05-06T11:56:42;101487.13;;;15.00;85.24
33949;BME280;20229;49.856;19.030;2023-05-06T12:01:58;101493.80;;;14.96;86.31
33949;BME280;20229;49.856;19.030;2023-05-06T12:07:14;101488.13;;;14.99;83.87
33949;BME280;20229;49.856;19.030;2023-05-06T12:12:29;101516.31;;;15.02;88.48
33949;BME280;20229;49.856;19.030;2023-05-06T12:17:45;101528.75;;;14.94;88.48
33949;BME280;20229;49.856;19.030;2023-05-06T12:23:06;101535.71;;;14.85;88.92
33949;BME280;20229;49.856;19.030;2023-05-06T12:28:20;101533.44;;;14.77;88.26
33949;BME280;20229;49.856;19.030;2023-05-06T12:33:45;101533.62;;;14.74;88.65
33949;BME280;20229;49.856;19.030;2023-05-06T12:39:01;101528.05;;;14.90;91.22
33949;BME280;20229;49.856;19.030;2023-05-06T12:49:50;101546.16;;;15.67;86.76
33949;BME280;20229;49.856;19.030;2023-05-06T12:55:05;101538.70;;;16.11;88.09
33949;BME280;20229;49.856;19.030;2023-05-06T13:00:19;101544.41;;;16.22;85.78
33949;BME280;20229;49.856;19.030;2023-05-06T13:05:35;101536.03;;;16.23;85.88
33949;BME280;20229;49.856;19.030;2023-05-06T13:10:50;101545.09;;;16.25;85.66
33949;BME280;20229;49.856;19.030;2023-05-06T13:16:05;101546.58;;;16.17;85.29
33949;BME280;20229;49.856;19.030;2023-05-06T13:21:19;101541.38;;;16.12;86.72
33949;BME280;20229;49.856;19.030;2023-05-06T13:26:33;101542.73;;;16.19;87.19
33949;BME280;20229;49.856;19.030;2023-05-06T13:31:48;101533.88;;;16.14;86.59
33949;BME280;20229;49.856;19.030;2023-05-06T13:37:02;101535.07;;;16.10;87.09
33949;BME280;20229;49.856;19.030;2023-05-06T13:42:15;101522.38;;;16.08;88.86
33949;BME280;20229;49.856;19.030;2023-05-06T13:47:29;101519.15;;;16.15;88.92
33949;BME280;20229;49.856;19.030;2023-05-06T13:52:43;101507.08;;;16.31;89.03
33949;BME280;20229;49.856;19.030;2023-05-06T13:57:57;101514.87;;;16.51;89.57
33949;BME280;20229;49.856;19.030;2023-05-06T14:03:11;101518.86;;;16.87;89.83
33949;BME280;20229;49.856;19.030;2023-05-06T14:08:26;101514.16;;;17.53;88.97
33949;BME280;20229;49.856;19.030;2023-05-06T14:13:39;101500.63;;;17.74;84.80
33949;BME280;20229;49.856;19.030;2023-05-06T14:18:53;101509.80;;;17.87;85.94
33949;BME280;20229;49.856;19.030;2023-05-06T14:24:07;101509.86;;;18.11;87.52
33949;BME280;20229;49.856;19.030;2023-05-06T14:29:24;101512.74;;;18.09;86.88
33949;BME280;20229;49.856;19.030;2023-05-06T14:34:38;101509.88;;;17.98;87.17
33949;BME280;20229;49.856;19.030;2023-05-06T14:39:53;101516.05;;;18.02;87.66
33949;BME280;20229;49.856;19.030;2023-05-06T14:45:07;101523.55;;;18.12;86.43
33949;BME280;20229;49.856;19.030;2023-05-06T14:50:22;101520.72;;;18.01;86.43
33949;BME280;20229;49.856;19.030;2023-05-06T14:55:36;101525.85;;;17.82;87.55
33949;BME280;20229;49.856;19.030;2023-05-06T15:00:50;101530.25;;;17.72;87.08
33949;BME280;20229;49.856;19.030;2023-05-06T15:06:04;101524.98;;;17.81;87.72
33949;BME280;20229;49.856;19.030;2023-05-06T15:11:19;101515.30;;;18.00;86.09
33949;BME280;20229;49.856;19.030;2023-05-06T15:16:33;101532.09;;;18.09;84.02
33949;BME280;20229;49.856;19.030;2023-05-06T15:21:48;101531.77;;;18.01;82.12
33949;BME280;20229;49.856;19.030;2023-05-06T15:27:01;101528.25;;;17.99;81.89
33949;BME280;20229;49.856;19.030;2023-05-06T15:32:15;101526.06;;;17.91;80.53
33949;BME280;20229;49.856;19.030;2023-05-06T15:37:32;101521.72;;;18.00;80.49
33949;BME280;20229;49.856;19.030;2023-05-06T15:42:46;101517.63;;;18.06;78.86
33949;BME280;20229;49.856;19.030;2023-05-06T15:47:59;101529.13;;;18.00;77.65
33949;BME280;20229;49.856;19.030;2023-05-06T15:53:13;101531.10;;;17.98;77.89
33949;BME280;20229;49.856;19.030;2023-05-06T15:58:27;101531.99;;;17.98;77.73
33949;BME280;20229;49.856;19.030;2023-05-06T16:03:41;101522.50;;;18.02;76.75
33949;BME280;20229;49.856;19.030;2023-05-06T16:08:55;101533.95;;;18.09;75.80
33949;BME280;20229;49.856;19.030;2023-05-06T16:14:11;101536.06;;;18.05;76.44
33949;BME280;20229;49.856;19.030;2023-05-06T16:19:25;101534.66;;;18.00;76.37
33949;BME280;20229;49.856;19.030;2023-05-06T16:24:39;101533.44;;;17.91;76.65
33949;BME280;20229;49.856;19.030;2023-05-06T16:29:53;101541.98;;;17.88;77.15
33949;BME280;20229;49.856;19.030;2023-05-06T16:35:08;101541.17;;;17.73;76.46
33949;BME280;20229;49.856;19.030;2023-05-06T16:40:22;101554.12;;;17.47;77.22
33949;BME280;20229;49.856;19.030;2023-05-06T16:45:36;101549.93;;;17.29;75.39
33949;BME280;20229;49.856;19.030;2023-05-06T16:50:53;101571.52;;;17.09;77.16
33949;BME280;20229;49.856;19.030;2023-05-06T16:56:07;101572.94;;;17.02;77.45
33949;BME280;20229;49.856;19.030;2023-05-06T17:01:21;101566.97;;;16.95;77.33
33949;BME280;20229;49.856;19.030;2023-05-06T17:06:35;101562.77;;;16.90;79.41
33949;BME280;20229;49.856;19.030;2023-05-06T17:11:49;101572.30;;;16.71;78.76
33949;BME280;20229;49.856;19.030;2023-05-06T17:17:03;101565.84;;;16.58;79.85
33949;BME280;20229;49.856;19.030;2023-05-06T17:22:17;101578.48;;;16.48;80.51
33949;BME280;20229;49.856;19.030;2023-05-06T17:27:33;101574.36;;;16.41;80.90
33949;BME280;20229;49.856;19.030;2023-05-06T17:32:47;101589.62;;;16.32;82.11
33949;BME280;20229;49.856;19.030;2023-05-06T17:38:00;101587.58;;;16.21;83.01
33949;BME280;20229;49.856;19.030;2023-05-06T17:43:15;101603.94;;;16.10;82.08
33949;BME280;20229;49.856;19.030;2023-05-06T17:48:29;101603.55;;;16.02;83.29
33949;BME280;20229;49.856;19.030;2023-05-06T17:53:43;101601.59;;;15.90;82.64
33949;BME280;20229;49.856;19.030;2023-05-06T17:58:57;101604.84;;;15.82;84.13
33949;BME280;20229;49.856;19.030;2023-05-06T18:04:17;101608.27;;;15.71;84.62
33949;BME280;20229;49.856;19.030;2023-05-06T18:09:30;101619.63;;;15.65;82.42
33949;BME280;20229;49.856;19.030;2023-05-06T18:14:46;101627.50;;;15.57;83.02
33949;BME280;20229;49.856;19.030;2023-05-06T18:20:01;101637.12;;;15.50;83.50
33949;BME280;20229;49.856;19.030;2023-05-06T18:25:15;101636.62;;;15.43;82.50
33949;BME280;20229;49.856;19.030;2023-05-06T18:30:29;101649.09;;;15.35;82.94
33949;BME280;20229;49.856;19.030;2023-05-06T18:35:44;101653.38;;;15.24;81.92
33949;BME280;20229;49.856;19.030;2023-05-06T18:40:58;101648.42;;;15.15;82.96
33949;BME280;20229;49.856;19.030;2023-05-06T18:46:11;101654.51;;;15.06;82.12
33949;BME280;20229;49.856;19.030;2023-05-06T18:51:25;101661.35;;;14.99;81.70
33949;BME280;20229;49.856;19.030;2023-05-06T18:56:39;101664.56;;;14.91;82.13
33949;BME280;20229;49.856;19.030;2023-05-06T19:01:55;101674.05;;;14.86;82.01
33949;BME280;20229;49.856;19.030;2023-05-06T19:07:09;101681.76;;;14.79;82.01
33949;BME280;20229;49.856;19.030;2023-05-06T19:12:23;101683.98;;;14.72;82.58
33949;BME280;20229;49.856;19.030;2023-05-06T19:17:37;101684.33;;;14.66;82.68
33949;BME280;20229;49.856;19.030;2023-05-06T19:22:51;101704.72;;;14.62;82.68
33949;BME280;20229;49.856;19.030;2023-05-06T19:28:05;101688.95;;;14.50;81.79
33949;BME280;20229;49.856;19.030;2023-05-06T19:33:20;101695.63;;;14.44;81.44
33949;BME280;20229;49.856;19.030;2023-05-06T19:38:34;101705.20;;;14.37;82.28
33949;BME280;20229;49.856;19.030;2023-05-06T19:43:50;101721.14;;;14.30;81.85
33949;BME280;20229;49.856;19.030;2023-05-06T19:49:03;101719.71;;;14.23;82.26
33949;BME280;20229;49.856;19.030;2023-05-06T19:54:18;101722.63;;;14.20;82.29
33949;BME280;20229;49.856;19.030;2023-05-06T19:59:32;101725.73;;;14.14;82.27
33949;BME280;20229;49.856;19.030;2023-05-06T20:04:46;101733.31;;;14.09;82.56
33949;BME280;20229;49.856;19.030;2023-05-06T20:10:00;101729.23;;;14.00;83.04
33949;BME280;20229;49.856;19.030;2023-05-06T20:15:14;101736.90;;;13.94;83.25
33949;BME280;20229;49.856;19.030;2023-05-06T20:20:28;101733.51;;;13.88;82.41
33949;BME280;20229;49.856;19.030;2023-05-06T20:25:47;101738.37;;;13.83;82.71
33949;BME280;20229;49.856;19.030;2023-05-06T20:31:01;101744.18;;;13.77;83.54
33949;BME280;20229;49.856;19.030;2023-05-06T20:36:15;101741.79;;;13.71;82.42
33949;BME280;20229;49.856;19.030;2023-05-06T20:41:30;101742.89;;;13.67;83.73
33949;BME280;20229;49.856;19.030;2023-05-06T20:46:46;101742.26;;;13.62;83.61
33949;BME280;20229;49.856;19.030;2023-05-06T20:52:00;101739.83;;;13.56;83.39
33949;BME280;20229;49.856;19.030;2023-05-06T20:57:15;101732.73;;;13.52;83.01
33949;BME280;20229;49.856;19.030;2023-05-06T21:02:29;101737.59;;;13.47;83.27
33949;BME280;20229;49.856;19.030;2023-05-06T21:07:44;101738.87;;;13.39;83.01
33949;BME280;20229;49.856;19.030;2023-05-06T21:12:58;101737.42;;;13.32;83.56
33949;BME280;20229;49.856;19.030;2023-05-06T21:18:12;101748.54;;;13.29;83.75
33949;BME280;20229;49.856;19.030;2023-05-06T21:23:26;101754.30;;;13.23;83.85
33949;BME280;20229;49.856;19.030;2023-05-06T21:28:40;101748.17;;;13.18;83.92
33949;BME280;20229;49.856;19.030;2023-05-06T21:33:56;101753.87;;;13.13;84.62
33949;BME280;20229;49.856;19.030;2023-05-06T21:39:12;101753.08;;;13.11;85.05
33949;BME280;20229;49.856;19.030;2023-05-06T21:44:26;101757.68;;;13.11;84.73
33949;BME280;20229;49.856;19.030;2023-05-06T21:49:40;101751.37;;;13.09;84.10
33949;BME280;20229;49.856;19.030;2023-05-06T21:54:54;101762.63;;;13.03;84.82
33949;BME280;20229;49.856;19.030;2023-05-06T22:00:09;101770.05;;;13.01;84.00
33949;BME280;20229;49.856;19.030;2023-05-06T22:05:24;101771.98;;;12.99;84.25
33949;BME280;20229;49.856;19.030;2023-05-06T22:10:39;101756.71;;;12.93;83.88
33949;BME280;20229;49.856;19.030;2023-05-06T22:15:53;101754.20;;;12.88;84.22
33949;BME280;20229;49.856;19.030;2023-05-06T22:21:06;101757.04;;;12.87;84.52
33949;BME280;20229;49.856;19.030;2023-05-06T22:26:22;101754.51;;;12.82;84.13
33949;BME280;20229;49.856;19.030;2023-05-06T22:31:37;101756.45;;;12.80;84.43
33949;BME280;20229;49.856;19.030;2023-05-06T22:36:50;101761.10;;;12.78;85.14
33949;BME280;20229;49.856;19.030;2023-05-06T22:42:04;101761.33;;;12.74;84.67
33949;BME280;20229;49.856;19.030;2023-05-06T22:47:18;101758.83;;;12.69;84.90
33949;BME280;20229;49.856;19.030;2023-05-06T22:52:32;101764.30;;;12.69;84.61
33949;BME280;20229;49.856;19.030;2023-05-06T22:57:46;101762.59;;;12.66;85.10
33949;BME280;20229;49.856;19.030;2023-05-06T23:03:02;101760.89;;;12.64;85.01
33949;BME280;20229;49.856;19.030;2023-05-06T23:08:18;101761.02;;;12.61;85.99
33949;BME280;20229;49.856;19.030;2023-05-06T23:13:32;101770.22;;;12.60;84.85
33949;BME280;20229;49.856;19.030;2023-05-06T23:18:48;101759.40;;;12.57;84.85
33949;BME280;20229;49.856;19.030;2023-05-06T23:24:03;101766.64;;;12.58;85.70
33949;BME280;20229;49.856;19.030;2023-05-06T23:29:17;101768.73;;;12.53;85.45
33949;BME280;20229;49.856;19.030;2023-05-06T23:34:32;101765.16;;;12.51;85.18
33949;BME280;20229;49.856;19.030;2023-05-06T23:39:45;101760.90;;;12.45;85.90
33949;BME280;20229;49.856;19.030;2023-05-06T23:45:00;101767.40;;;12.42;85.83
33949;BME280;20229;49.856;19.030;2023-05-06T23:50:13;101769.33;;;12.40;86.08
33949;BME280;20229;49.856;19.030;2023-05-06T23:55:28;101761.31;;;12.36;86.37
